createdAt,value
2017-12-12T00:00:23.733Z,90.85
2017-12-12T00:02:51.189Z,89.77
2017-12-12T00:05:18.765Z,90.49
2017-12-12T00:07:46.217Z,90.28
2017-12-12T00:10:13.678Z,90.14
2017-12-12T00:12:41.161Z,90.03
2017-12-12T00:15:08.628Z,90.21
2017-12-12T00:17:36.102Z,90.51
2017-12-12T00:20:03.612Z,90.81
2017-12-12T00:22:43.068Z,90.29
2017-12-12T00:25:10.659Z,90.80
2017-12-12T00:27:38.106Z,91.26
2017-12-12T00:30:05.561Z,91.43
2017-12-12T00:32:33.056Z,91.17
2017-12-12T00:35:00.508Z,90.79
2017-12-12T00:37:27.983Z,90.72
2017-12-12T00:39:55.453Z,90.57
2017-12-12T00:42:22.925Z,90.14
2017-12-12T00:44:50.381Z,90.57
2017-12-12T00:47:17.857Z,89.98
2017-12-12T00:49:45.321Z,90.26
2017-12-12T00:52:12.811Z,90.20
2017-12-12T00:54:41.141Z,90.57
2017-12-12T00:57:08.613Z,90.53
2017-12-12T00:59:36.135Z,90.98
2017-12-12T01:02:03.650Z,90.41
2017-12-12T01:04:31.084Z,91.00
2017-12-12T01:06:58.557Z,90.44
2017-12-12T01:09:26.105Z,91.03
2017-12-12T01:11:53.581Z,90.61
2017-12-12T01:14:21.085Z,90.72
2017-12-12T01:16:48.561Z,90.66
2017-12-12T01:19:16.017Z,90.67
2017-12-12T01:21:43.496Z,90.63
2017-12-12T01:24:10.953Z,91.09
2017-12-12T01:26:38.432Z,90.25
2017-12-12T01:31:56.325Z,90.93
2017-12-12T01:34:23.781Z,90.83
2017-12-12T01:36:51.249Z,90.57
2017-12-12T01:39:18.705Z,90.52
2017-12-12T01:41:46.174Z,90.85
2017-12-12T01:44:13.632Z,90.80
2017-12-12T01:46:41.105Z,89.99
2017-12-12T01:49:08.560Z,89.96
2017-12-12T01:51:36.032Z,89.92
2017-12-12T01:54:03.484Z,90.08
2017-12-12T01:56:30.976Z,89.82
2017-12-12T01:58:58.433Z,89.54
2017-12-12T02:01:25.910Z,89.51
2017-12-12T02:03:53.365Z,88.84
2017-12-12T02:06:20.930Z,88.71
2017-12-12T02:08:48.393Z,89.86
2017-12-12T02:11:15.953Z,89.29
2017-12-12T02:13:43.422Z,89.20
2017-12-12T02:16:10.892Z,89.15
2017-12-12T02:18:38.345Z,89.34
2017-12-12T02:21:05.813Z,89.20
2017-12-12T02:23:33.264Z,89.36
2017-12-12T02:26:00.739Z,89.74
2017-12-12T02:28:28.194Z,89.28
2017-12-12T02:30:55.665Z,89.74
2017-12-12T02:33:23.125Z,89.12
2017-12-12T02:35:50.578Z,89.10
2017-12-12T02:38:18.053Z,89.43
2017-12-12T02:40:45.509Z,89.25
2017-12-12T02:43:13.065Z,89.18
2017-12-12T02:45:40.522Z,89.57
2017-12-12T02:48:07.993Z,89.97
2017-12-12T02:50:35.449Z,89.21
2017-12-12T02:53:02.925Z,89.58
2017-12-12T02:55:30.382Z,88.86
2017-12-12T02:57:57.864Z,88.59
2017-12-12T03:00:25.321Z,88.59
2017-12-12T03:02:52.790Z,88.57
2017-12-12T03:05:20.245Z,88.60
2017-12-12T03:07:47.717Z,89.01
2017-12-12T03:10:15.164Z,89.49
2017-12-12T03:12:42.637Z,89.85
2017-12-12T03:15:10.089Z,89.18
2017-12-12T03:17:37.567Z,89.19
2017-12-12T03:20:05.025Z,88.99
2017-12-12T03:22:32.492Z,88.92
2017-12-12T03:24:59.977Z,89.17
2017-12-12T03:27:27.449Z,89.14
2017-12-12T03:29:54.909Z,89.34
2017-12-12T03:32:22.380Z,89.86
2017-12-12T03:34:49.837Z,90.78
2017-12-12T03:37:17.315Z,89.88
2017-12-12T03:39:44.773Z,89.63
2017-12-12T03:42:12.252Z,89.60
2017-12-12T03:44:39.712Z,90.06
2017-12-12T03:47:07.180Z,89.74
2017-12-12T03:49:34.642Z,89.81
2017-12-12T03:52:02.117Z,89.61
2017-12-12T03:54:29.573Z,89.18
2017-12-12T03:56:57.040Z,89.52
2017-12-12T03:59:24.501Z,90.10
2017-12-12T04:01:51.973Z,89.35
2017-12-12T04:04:19.438Z,88.97
2017-12-12T04:06:46.905Z,88.76
2017-12-12T04:09:14.406Z,89.14
2017-12-12T04:11:41.869Z,89.33
2017-12-12T04:14:09.349Z,88.60
2017-12-12T04:16:36.804Z,88.70
2017-12-12T04:19:04.278Z,90.23
2017-12-12T04:21:31.736Z,89.73
2017-12-12T04:23:59.209Z,89.52
2017-12-12T04:26:26.668Z,88.87
2017-12-12T04:28:54.145Z,87.92
2017-12-12T04:31:21.600Z,87.76
2017-12-12T04:33:49.083Z,87.59
2017-12-12T04:36:16.540Z,86.83
2017-12-12T04:38:44.100Z,85.72
2017-12-12T04:41:11.554Z,86.73
2017-12-12T04:43:39.026Z,87.37
2017-12-12T04:46:06.491Z,87.59
2017-12-12T04:48:33.966Z,87.81
2017-12-12T04:51:01.437Z,88.83
2017-12-12T04:53:28.921Z,88.33
2017-12-12T04:55:56.378Z,87.83
2017-12-12T04:58:23.853Z,88.65
2017-12-12T05:00:51.310Z,88.88
2017-12-12T05:03:18.875Z,87.99
2017-12-12T05:05:46.336Z,87.48
2017-12-12T05:08:13.809Z,86.99
2017-12-12T05:10:41.269Z,86.22
2017-12-12T05:13:08.749Z,86.48
2017-12-12T05:15:36.200Z,87.04
2017-12-12T05:18:03.677Z,86.81
2017-12-12T05:20:31.129Z,86.79
2017-12-12T05:22:58.596Z,87.05
2017-12-12T05:25:26.049Z,86.53
2017-12-12T05:27:53.521Z,86.76
2017-12-12T05:30:21.005Z,87.18
2017-12-12T05:32:48.485Z,87.68
2017-12-12T05:35:15.937Z,87.65
2017-12-12T05:37:43.413Z,87.61
2017-12-12T05:40:10.874Z,87.99
2017-12-12T05:42:38.344Z,86.72
2017-12-12T05:45:05.807Z,85.83
2017-12-12T05:47:33.258Z,86.36
2017-12-12T05:50:00.736Z,82.61
2017-12-12T05:52:28.225Z,82.37
2017-12-12T05:54:55.697Z,79.11
2017-12-12T05:57:23.161Z,77.65
2017-12-12T05:59:50.697Z,77.52
2017-12-12T06:02:18.149Z,76.63
2017-12-12T06:04:45.616Z,77.37
2017-12-12T06:07:13.158Z,77.36
2017-12-12T06:09:40.632Z,73.96
2017-12-12T06:12:08.093Z,75.00
2017-12-12T06:14:35.583Z,72.40
2017-12-12T06:17:03.045Z,71.27
2017-12-12T06:19:30.559Z,70.75
2017-12-12T06:21:58.017Z,70.28
2017-12-12T06:24:25.493Z,70.48
2017-12-12T06:26:52.953Z,70.66
2017-12-12T06:29:20.429Z,69.74
2017-12-12T06:31:47.889Z,70.65
2017-12-12T06:34:15.408Z,70.61
2017-12-12T06:36:42.884Z,71.42
2017-12-12T06:39:10.359Z,71.66
2017-12-12T06:41:38.040Z,71.59
2017-12-12T06:44:05.512Z,71.39
2017-12-12T06:46:32.974Z,71.98
2017-12-12T06:49:00.448Z,71.25
2017-12-12T06:51:27.905Z,72.12
2017-12-12T06:53:55.378Z,71.84
2017-12-12T06:56:22.841Z,72.37
2017-12-12T06:58:50.320Z,72.06
2017-12-12T07:01:17.768Z,71.18
2017-12-12T07:03:45.241Z,71.85
2017-12-12T07:06:12.692Z,73.05
2017-12-12T07:08:40.169Z,73.02
2017-12-12T07:11:07.674Z,72.69
2017-12-12T07:13:35.153Z,72.01
2017-12-12T07:16:02.610Z,71.79
2017-12-12T07:18:30.092Z,73.29
2017-12-12T07:20:57.544Z,73.82
2017-12-12T07:23:25.024Z,72.95
2017-12-12T07:25:52.481Z,73.97
2017-12-12T07:28:19.957Z,71.84
2017-12-12T07:30:47.420Z,74.37
2017-12-12T07:33:14.912Z,72.27
2017-12-12T07:35:42.373Z,72.50
2017-12-12T07:38:09.853Z,71.83
2017-12-12T07:40:37.305Z,71.69
2017-12-12T07:43:04.772Z,71.76
2017-12-12T07:45:32.232Z,71.45
2017-12-12T07:47:59.709Z,72.86
2017-12-12T07:50:27.176Z,72.66
2017-12-12T07:52:54.644Z,71.78
2017-12-12T07:55:22.102Z,72.61
2017-12-12T07:57:49.573Z,72.33
2017-12-12T08:00:17.037Z,72.08
2017-12-12T08:02:44.496Z,72.15
2017-12-12T08:05:12.006Z,71.75
2017-12-12T08:07:39.460Z,72.24
2017-12-12T08:10:06.937Z,71.33
2017-12-12T08:12:34.397Z,71.95
2017-12-12T08:15:01.870Z,71.70
2017-12-12T08:17:29.339Z,71.92
2017-12-12T08:19:56.819Z,70.94
2017-12-12T08:22:24.272Z,71.98
2017-12-12T08:24:51.749Z,71.28
2017-12-12T08:27:19.200Z,70.12
2017-12-12T08:29:46.656Z,71.96
2017-12-12T08:32:14.129Z,70.62
2017-12-12T08:34:41.581Z,71.43
2017-12-12T08:37:09.061Z,71.19
2017-12-12T08:39:36.517Z,71.00
2017-12-12T08:42:03.997Z,70.64
2017-12-12T08:44:31.448Z,71.45
2017-12-12T08:46:59.022Z,70.43
2017-12-12T08:49:26.481Z,70.95
2017-12-12T08:51:53.957Z,71.74
2017-12-12T08:54:21.421Z,70.92
2017-12-12T08:56:48.889Z,70.03
2017-12-12T08:59:16.344Z,70.37
2017-12-12T09:01:43.825Z,70.10
2017-12-12T09:04:11.284Z,70.13
2017-12-12T09:06:38.756Z,69.43
2017-12-12T09:09:06.210Z,69.11
2017-12-12T09:11:33.680Z,70.26
2017-12-12T09:14:01.137Z,69.88
2017-12-12T09:16:28.613Z,70.33
2017-12-12T09:18:56.081Z,69.24
2017-12-12T09:21:23.627Z,69.99
2017-12-12T09:23:51.085Z,69.47
2017-12-12T09:26:18.561Z,69.54
2017-12-12T09:28:46.029Z,69.47
2017-12-12T09:31:13.501Z,70.29
2017-12-12T09:33:40.957Z,70.18
2017-12-12T09:36:08.413Z,69.83
2017-12-12T09:38:35.883Z,68.65
2017-12-12T09:41:03.341Z,69.66
2017-12-12T09:43:30.813Z,69.23
2017-12-12T09:45:58.277Z,69.89
2017-12-12T09:48:25.749Z,67.80
2017-12-12T09:50:53.200Z,67.63
2017-12-12T09:53:20.670Z,68.14
2017-12-12T09:55:48.133Z,68.83
2017-12-12T09:58:15.613Z,68.28
2017-12-12T10:00:43.064Z,68.16
2017-12-12T10:03:10.540Z,67.85
2017-12-12T10:05:38.008Z,69.12
2017-12-12T10:08:05.481Z,67.30
2017-12-12T10:10:32.933Z,67.67
2017-12-12T10:13:00.401Z,66.36
2017-12-12T10:15:27.856Z,66.48
2017-12-12T10:17:55.333Z,67.85
2017-12-12T10:20:22.788Z,68.11
2017-12-12T10:22:50.265Z,67.42
2017-12-12T10:25:17.721Z,66.82
2017-12-12T10:27:45.197Z,67.85
2017-12-12T10:30:12.666Z,67.31
2017-12-12T10:32:40.138Z,67.73
2017-12-12T10:35:07.589Z,67.15
2017-12-12T10:37:35.058Z,67.13
2017-12-12T10:40:02.509Z,67.54
2017-12-12T10:42:29.981Z,67.51
2017-12-12T10:44:57.447Z,68.18
2017-12-12T10:47:24.967Z,67.46
2017-12-12T10:49:52.425Z,68.35
2017-12-12T10:52:19.901Z,66.84
2017-12-12T10:54:47.362Z,67.40
2017-12-12T10:57:14.831Z,68.05
2017-12-12T10:59:42.294Z,67.34
2017-12-12T11:02:09.769Z,66.92
2017-12-12T11:04:37.224Z,67.69
2017-12-12T11:07:04.696Z,66.80
2017-12-12T11:09:32.153Z,65.87
2017-12-12T11:11:59.604Z,66.51
2017-12-12T11:14:27.085Z,66.34
2017-12-12T11:16:54.537Z,65.29
2017-12-12T11:19:22.013Z,65.15
2017-12-12T11:21:49.473Z,65.74
2017-12-12T11:24:16.949Z,66.00
2017-12-12T11:26:44.400Z,66.96
2017-12-12T11:29:11.878Z,67.63
2017-12-12T11:31:39.331Z,69.10
2017-12-12T11:34:06.805Z,69.77
2017-12-12T11:36:34.272Z,70.94
2017-12-12T11:39:01.743Z,71.44
2017-12-12T11:41:29.214Z,72.67
2017-12-12T11:43:56.701Z,75.64
2017-12-12T11:46:24.161Z,77.92
2017-12-12T11:48:51.641Z,79.64
2017-12-12T11:51:19.097Z,80.22
2017-12-12T11:53:46.699Z,80.57
2017-12-12T11:56:14.156Z,80.93
2017-12-12T11:58:41.629Z,79.26
2017-12-12T12:01:09.080Z,81.62
2017-12-12T12:03:36.549Z,81.01
2017-12-12T12:06:04.005Z,81.00
2017-12-12T12:08:31.543Z,80.01
2017-12-12T12:10:58.998Z,80.31
2017-12-12T12:13:26.477Z,80.39
2017-12-12T12:15:53.937Z,83.16
2017-12-12T12:18:21.413Z,80.50
2017-12-12T12:20:48.872Z,81.71
2017-12-12T12:23:16.352Z,81.62
2017-12-12T12:25:43.804Z,82.18
2017-12-12T12:28:11.293Z,81.87
2017-12-12T12:30:38.758Z,82.22
2017-12-12T12:33:06.245Z,81.64
2017-12-12T12:35:33.701Z,82.12
2017-12-12T12:38:01.180Z,82.94
2017-12-12T12:40:28.634Z,82.87
2017-12-12T12:42:56.104Z,83.15
2017-12-12T12:45:23.568Z,83.07
2017-12-12T12:47:51.047Z,82.92
2017-12-12T12:50:18.511Z,81.48
2017-12-12T12:52:46.082Z,81.69
2017-12-12T12:55:13.544Z,81.92
2017-12-12T12:57:41.140Z,82.42
2017-12-12T13:00:08.742Z,84.67
2017-12-12T13:02:36.223Z,84.01
2017-12-12T13:05:03.684Z,84.27
2017-12-12T13:07:31.185Z,83.88
2017-12-12T13:09:58.645Z,83.68
2017-12-12T13:12:26.117Z,83.24
2017-12-12T13:14:53.588Z,83.82
2017-12-12T13:17:21.057Z,82.96
2017-12-12T13:19:48.512Z,83.30
2017-12-12T13:22:16.037Z,83.83
2017-12-12T13:24:43.488Z,83.70
2017-12-12T13:27:10.968Z,84.03
2017-12-12T13:29:38.420Z,83.64
2017-12-12T13:32:05.877Z,84.03
2017-12-12T13:34:33.345Z,83.90
2017-12-12T13:37:00.814Z,83.60
2017-12-12T13:39:28.293Z,83.96
2017-12-12T13:41:55.757Z,83.49
2017-12-12T13:44:23.232Z,84.32
2017-12-12T13:46:50.680Z,85.62
2017-12-12T13:49:18.166Z,84.82
2017-12-12T13:51:45.630Z,84.59
2017-12-12T13:54:13.117Z,85.79
2017-12-12T13:56:40.577Z,85.20
2017-12-12T13:59:08.057Z,85.30
2017-12-12T14:01:35.512Z,85.24
2017-12-12T14:04:02.991Z,84.49
2017-12-12T14:06:30.452Z,84.29
2017-12-12T14:08:57.931Z,84.30
2017-12-12T14:11:25.393Z,84.42
2017-12-12T14:13:52.869Z,85.05
2017-12-12T14:16:20.320Z,84.25
2017-12-12T14:18:47.801Z,84.82
2017-12-12T14:21:15.263Z,85.02
2017-12-12T14:23:42.720Z,84.85
2017-12-12T14:26:10.205Z,84.61
2017-12-12T14:28:37.665Z,84.73
2017-12-12T14:31:05.141Z,85.36
2017-12-12T14:33:32.596Z,84.21
2017-12-12T14:36:00.081Z,83.68
2017-12-12T14:38:27.553Z,84.24
2017-12-12T14:40:55.103Z,85.02
2017-12-12T14:43:22.570Z,85.28
2017-12-12T14:45:50.049Z,83.83
2017-12-12T14:48:17.509Z,85.36
2017-12-12T14:50:44.989Z,85.87
2017-12-12T14:53:12.469Z,85.99
2017-12-12T14:55:39.957Z,84.93
2017-12-12T14:58:08.351Z,85.73
2017-12-12T15:00:35.812Z,85.18
2017-12-12T15:03:03.293Z,85.42
2017-12-12T15:05:30.761Z,86.01
2017-12-12T15:07:58.237Z,87.10
2017-12-12T15:10:25.721Z,86.84
2017-12-12T15:12:53.193Z,86.46
2017-12-12T15:15:20.660Z,86.08
2017-12-12T15:17:48.140Z,86.08
2017-12-12T15:20:15.608Z,86.08
2017-12-12T15:22:43.085Z,86.40
2017-12-12T15:25:10.566Z,86.45
2017-12-12T15:27:38.048Z,86.27
2017-12-12T15:30:05.517Z,86.55
2017-12-12T15:32:33.002Z,86.65
2017-12-12T15:35:00.461Z,86.76
2017-12-12T15:37:27.940Z,86.97
2017-12-12T15:39:55.404Z,86.91
2017-12-12T15:42:22.895Z,86.91
2017-12-12T15:44:50.400Z,87.08
2017-12-12T15:47:17.869Z,86.90
2017-12-12T15:49:45.357Z,87.19
2017-12-12T15:52:12.820Z,86.37
2017-12-12T15:54:40.301Z,85.98
2017-12-12T15:57:07.764Z,86.02
2017-12-12T15:59:35.245Z,86.40
2017-12-12T16:02:02.713Z,86.44
2017-12-12T16:04:30.179Z,86.79
2017-12-12T16:06:57.662Z,87.00
2017-12-12T16:09:25.124Z,87.14
2017-12-12T16:11:52.719Z,87.22
2017-12-12T16:14:20.180Z,87.75
2017-12-12T16:16:47.668Z,87.65
2017-12-12T16:19:15.134Z,87.94
2017-12-12T16:21:42.597Z,87.99
2017-12-12T16:24:10.086Z,87.56
2017-12-12T16:26:37.575Z,87.33
2017-12-12T16:29:05.038Z,87.51
2017-12-12T16:31:32.525Z,87.51
2017-12-12T16:33:59.989Z,87.57
2017-12-12T16:36:27.453Z,87.79
2017-12-12T16:38:54.938Z,87.17
2017-12-12T16:41:22.404Z,87.22
2017-12-12T16:43:49.877Z,87.43
2017-12-12T16:46:17.364Z,86.68
2017-12-12T16:48:44.828Z,85.58
2017-12-12T16:51:12.293Z,85.58
2017-12-12T16:53:39.772Z,84.94
2017-12-12T16:56:07.237Z,84.55
2017-12-12T16:58:34.701Z,84.32
2017-12-12T17:01:02.189Z,84.48
2017-12-12T17:03:29.661Z,84.76
2017-12-12T17:05:57.133Z,85.07
2017-12-12T17:08:24.617Z,84.92
2017-12-12T17:10:52.106Z,85.04
2017-12-12T17:13:19.569Z,85.27
2017-12-12T17:15:47.079Z,84.90
2017-12-12T17:18:14.549Z,85.24
2017-12-12T17:20:42.033Z,85.11
2017-12-12T17:23:09.497Z,85.29
2017-12-12T17:25:37.078Z,85.30
2017-12-12T17:28:04.549Z,85.48
2017-12-12T17:30:32.012Z,85.60
2017-12-12T17:32:59.492Z,85.36
2017-12-12T17:35:26.961Z,85.62
2017-12-12T17:37:54.445Z,85.02
2017-12-12T17:40:21.909Z,84.93
2017-12-12T17:42:49.381Z,85.30
2017-12-12T17:45:16.861Z,85.28
2017-12-12T17:47:44.326Z,85.46
2017-12-12T17:50:11.814Z,85.51
2017-12-12T17:52:39.289Z,84.66
2017-12-12T17:55:06.810Z,84.48
2017-12-12T17:57:34.296Z,84.14
2017-12-12T18:00:01.776Z,84.12
2017-12-12T18:02:29.259Z,83.83
2017-12-12T18:04:56.727Z,83.79
2017-12-12T18:07:24.214Z,84.18
2017-12-12T18:09:51.681Z,84.21
2017-12-12T18:12:19.149Z,84.23
2017-12-12T18:14:46.629Z,84.84
2017-12-12T18:17:14.089Z,84.22
2017-12-12T18:19:41.573Z,84.41
2017-12-12T18:22:09.143Z,85.05
2017-12-12T18:24:36.608Z,85.16
2017-12-12T18:27:04.090Z,85.39
2017-12-12T18:29:31.552Z,84.91
2017-12-12T18:31:59.021Z,85.42
2017-12-12T18:34:26.509Z,85.33
2017-12-12T18:36:53.973Z,84.59
2017-12-12T18:39:21.446Z,85.25
2017-12-12T18:41:48.933Z,84.89
2017-12-12T18:44:16.400Z,85.07
2017-12-12T18:46:43.860Z,84.60
2017-12-12T18:49:11.345Z,84.56
2017-12-12T18:51:38.813Z,85.13
2017-12-12T18:54:06.277Z,84.94
2017-12-12T18:56:33.756Z,84.87
2017-12-12T18:59:01.216Z,85.49
2017-12-12T19:01:28.676Z,85.01
2017-12-12T19:03:56.157Z,84.80
2017-12-12T19:06:23.679Z,85.03
2017-12-12T19:08:51.240Z,84.56
2017-12-12T19:11:18.724Z,85.22
2017-12-12T19:13:46.247Z,85.39
2017-12-12T19:16:13.716Z,85.43
2017-12-12T19:18:41.197Z,85.53
2017-12-12T19:21:08.661Z,85.81
2017-12-12T19:23:36.124Z,85.57
2017-12-12T19:26:03.605Z,85.20
2017-12-12T19:28:31.068Z,85.42
2017-12-12T19:30:58.553Z,84.49
2017-12-12T19:33:26.077Z,84.71
2017-12-12T19:35:53.516Z,84.45
2017-12-12T19:38:21.006Z,84.69
2017-12-12T19:40:48.476Z,84.45
2017-12-12T19:43:15.956Z,84.60
2017-12-12T19:45:43.440Z,84.24
2017-12-12T19:48:10.925Z,84.25
2017-12-12T19:50:38.389Z,84.20
2017-12-12T19:53:05.853Z,83.88
2017-12-12T19:55:33.339Z,83.03
2017-12-12T19:58:00.800Z,83.27
2017-12-12T20:00:28.289Z,83.38
2017-12-12T20:02:55.747Z,83.41
2017-12-12T20:05:23.213Z,83.78
2017-12-12T20:07:50.725Z,84.23
2017-12-12T20:10:18.225Z,84.08
2017-12-12T20:12:45.709Z,84.21
2017-12-12T20:15:13.272Z,85.06
2017-12-12T20:17:40.789Z,86.02
2017-12-12T20:20:08.428Z,85.62
2017-12-12T20:22:35.921Z,86.17
2017-12-12T20:25:03.408Z,86.00
2017-12-12T20:27:30.868Z,84.62
2017-12-12T20:29:58.355Z,83.69
2017-12-12T20:32:25.845Z,84.70
2017-12-12T20:34:53.429Z,84.85
2017-12-12T20:37:20.953Z,85.81
2017-12-12T20:39:48.431Z,86.53
2017-12-12T20:42:15.945Z,86.75
2017-12-12T20:44:43.435Z,88.21
2017-12-12T20:47:10.933Z,89.16
2017-12-12T20:49:38.444Z,88.90
2017-12-12T20:52:05.937Z,88.25
2017-12-12T20:54:33.453Z,87.67
2017-12-12T20:57:00.892Z,87.81
2017-12-12T20:59:28.381Z,87.72
2017-12-12T21:01:55.861Z,88.50
2017-12-12T21:06:50.108Z,87.92
2017-12-12T21:09:17.755Z,88.01
2017-12-12T21:11:45.236Z,87.67
2017-12-12T21:14:12.725Z,87.01
2017-12-12T21:16:40.204Z,87.41
2017-12-12T21:19:07.701Z,87.35
2017-12-12T21:21:35.185Z,87.66
2017-12-12T21:24:02.644Z,87.06
2017-12-12T21:26:30.109Z,86.99
2017-12-12T21:28:57.592Z,86.53
2017-12-12T21:31:25.968Z,86.85
2017-12-12T21:33:53.436Z,86.63
2017-12-12T21:36:20.917Z,86.83
2017-12-12T21:38:48.381Z,87.88
2017-12-12T21:41:15.939Z,88.37
2017-12-12T21:43:43.425Z,88.84
2017-12-12T21:46:10.901Z,89.09
2017-12-12T21:48:38.382Z,89.63
2017-12-12T21:51:05.875Z,89.85
2017-12-12T21:53:33.349Z,90.01
2017-12-12T21:56:00.813Z,89.88
2017-12-12T21:58:28.305Z,89.42
2017-12-12T22:00:55.769Z,89.30
2017-12-12T22:03:23.246Z,88.62
2017-12-12T22:05:50.737Z,87.92
2017-12-12T22:08:18.201Z,88.20
2017-12-12T22:10:45.684Z,88.17
2017-12-12T22:13:13.174Z,88.11
2017-12-12T22:15:40.642Z,88.64
2017-12-12T22:18:08.129Z,89.24
2017-12-12T22:20:35.600Z,89.46
2017-12-12T22:23:03.093Z,89.18
2017-12-12T22:25:30.566Z,89.09
2017-12-12T22:27:58.042Z,88.68
2017-12-12T22:30:25.539Z,88.19
2017-12-12T22:32:53.004Z,87.07
2017-12-12T22:35:20.493Z,86.80
2017-12-12T22:37:47.965Z,87.27
2017-12-12T22:40:15.438Z,86.55
2017-12-12T22:42:42.922Z,86.62
2017-12-12T22:45:10.397Z,86.96
2017-12-12T22:47:37.880Z,87.28
2017-12-12T22:50:05.344Z,87.12
2017-12-12T22:52:32.817Z,87.26
2017-12-12T22:55:00.325Z,87.34
2017-12-12T22:57:27.796Z,86.97
2017-12-12T22:59:55.282Z,86.46
2017-12-12T23:02:22.857Z,86.12
2017-12-12T23:04:50.345Z,86.24
2017-12-12T23:07:17.817Z,86.38
2017-12-12T23:09:45.325Z,87.07
2017-12-12T23:12:12.805Z,87.62
2017-12-12T23:14:40.278Z,87.93
2017-12-12T23:17:07.771Z,87.93
2017-12-12T23:19:35.258Z,88.07
2017-12-12T23:22:02.749Z,88.20
2017-12-12T23:24:30.216Z,88.66
2017-12-12T23:26:57.734Z,88.94
2017-12-12T23:29:25.250Z,88.85
2017-12-12T23:31:52.740Z,89.01
2017-12-12T23:34:20.211Z,89.10
2017-12-12T23:36:47.697Z,89.08
2017-12-12T23:39:15.165Z,89.59
2017-12-12T23:41:42.634Z,90.30
2017-12-12T23:44:10.129Z,90.30
2017-12-12T23:46:37.594Z,90.02
2017-12-12T23:49:05.082Z,89.84
2017-12-12T23:51:32.564Z,89.97
2017-12-12T23:54:00.070Z,90.25
2017-12-12T23:56:27.541Z,90.68
2017-12-12T23:58:55.024Z,90.32
